Chum Phae, Thailand
Current Conditions -  °F | °C
As of 4:00 PM on Wednesday 28 Jan 2015 (Local Time) from VTUK Reporting Station
Clear Clear  
Wind Chill: 93°   Ceiling: Unl
Heat Index: 93°   Visibility: 5mi
Dew Point: 46°   Wind: 3mph
Humidity: 20%   Direction: NA
Pressure: 29.8"   Gusts: NA
Location:  16.54°N, 102.11°E
Report Text: VTUK 280900Z VRB03KT 8000 NSC34/08 Q1009 A2980RWY03 INFO LK
Loading
Personal Weather Stations






























Interactive Weather Map New forecast layout! Learn more

10-Day Weather Forecast

Advertisements
Track Severe Weather on mobile